sensor_id;sensor_type;location;lat;lon;timestamp;pressure;altitude;pressure_sealevel;temperature;humidity
40850;BME280;26571;41.610;25.380;2023-11-21T00:01:39;98203.72;;;9.56;70.81
40850;BME280;26571;41.610;25.380;2023-11-21T00:04:05;98205.34;;;9.49;70.91
40850;BME280;26571;41.610;25.380;2023-11-21T00:06:32;98209.94;;;9.39;70.66
40850;BME280;26571;41.610;25.380;2023-11-21T00:08:58;98217.19;;;9.45;71.07
40850;BME280;26571;41.610;25.380;2023-11-21T00:11:23;98222.75;;;9.42;71.04
40850;BME280;26571;41.610;25.380;2023-11-21T00:13:50;98210.28;;;9.27;70.56
40850;BME280;26571;41.610;25.380;2023-11-21T00:16:16;98227.19;;;9.25;71.08
40850;BME280;26571;41.610;25.380;2023-11-21T00:18:41;98218.78;;;9.13;70.90
40850;BME280;26571;41.610;25.380;2023-11-21T00:21:08;98236.19;;;9.14;71.08
40850;BME280;26571;41.610;25.380;2023-11-21T00:23:34;98208.94;;;8.91;71.76
40850;BME280;26571;41.610;25.380;2023-11-21T00:25:59;98237.19;;;9.13;71.80
40850;BME280;26571;41.610;25.380;2023-11-21T00:28:25;98220.78;;;9.11;71.80
40850;BME280;26571;41.610;25.380;2023-11-21T00:30:51;98242.44;;;9.21;71.70
40850;BME280;26571;41.610;25.380;2023-11-21T00:33:16;98232.75;;;9.22;70.81
40850;BME280;26571;41.610;25.380;2023-11-21T00:35:42;98240.31;;;9.17;71.00
40850;BME280;26571;41.610;25.380;2023-11-21T00:38:07;98239.50;;;9.16;71.18
40850;BME280;26571;41.610;25.380;2023-11-21T00:40:34;98241.28;;;9.07;71.88
40850;BME280;26571;41.610;25.380;2023-11-21T00:42:59;98225.31;;;8.93;72.10
40850;BME280;26571;41.610;25.380;2023-11-21T00:45:25;98243.94;;;9.16;72.04
40850;BME280;26571;41.610;25.380;2023-11-21T00:47:51;98228.13;;;8.99;72.35
40850;BME280;26571;41.610;25.380;2023-11-21T00:50:16;98243.72;;;9.09;71.79
40850;BME280;26571;41.610;25.380;2023-11-21T00:52:42;98245.41;;;9.10;71.88
40850;BME280;26571;41.610;25.380;2023-11-21T00:55:07;98231.44;;;9.01;72.49
40850;BME280;26571;41.610;25.380;2023-11-21T00:57:34;98238.81;;;9.14;72.40
40850;BME280;26571;41.610;25.380;2023-11-21T00:59:59;98243.09;;;9.23;72.61
40850;BME280;26571;41.610;25.380;2023-11-21T01:02:25;98237.84;;;9.15;71.89
40850;BME280;26571;41.610;25.380;2023-11-21T01:04:51;98236.34;;;9.13;71.77
40850;BME280;26571;41.610;25.380;2023-11-21T01:07:16;98228.31;;;9.06;71.93
40850;BME280;26571;41.610;25.380;2023-11-21T01:09:45;98237.84;;;9.15;72.33
40850;BME280;26571;41.610;25.380;2023-11-21T01:12:11;98230.94;;;9.14;71.96
40850;BME280;26571;41.610;25.380;2023-11-21T01:14:36;98230.78;;;9.07;72.28
40850;BME280;26571;41.610;25.380;2023-11-21T01:17:02;98239.16;;;9.11;71.17
40850;BME280;26571;41.610;25.380;2023-11-21T01:19:29;98225.00;;;9.04;70.52
40850;BME280;26571;41.610;25.380;2023-11-21T01:21:54;98222.38;;;8.96;71.44
40850;BME280;26571;41.610;25.380;2023-11-21T01:24:20;98232.53;;;8.83;71.29
40850;BME280;26571;41.610;25.380;2023-11-21T01:26:45;98225.28;;;8.76;71.96
40850;BME280;26571;41.610;25.380;2023-11-21T01:29:12;98231.19;;;8.78;72.58
40850;BME280;26571;41.610;25.380;2023-11-21T01:31:37;98233.16;;;8.76;72.39
40850;BME280;26571;41.610;25.380;2023-11-21T01:34:03;98218.06;;;8.70;73.00
40850;BME280;26571;41.610;25.380;2023-11-21T01:36:32;98226.94;;;8.77;72.44
40850;BME280;26571;41.610;25.380;2023-11-21T01:38:58;98218.06;;;8.70;72.54
40850;BME280;26571;41.610;25.380;2023-11-21T01:41:27;98224.63;;;8.74;72.70
40850;BME280;26571;41.610;25.380;2023-11-21T01:43:54;98225.97;;;8.87;72.17
40850;BME280;26571;41.610;25.380;2023-11-21T01:46:20;98211.50;;;8.66;71.70
40850;BME280;26571;41.610;25.380;2023-11-21T01:48:48;98179.94;;;8.50;72.45
40850;BME280;26571;41.610;25.380;2023-11-21T01:51:14;98224.94;;;8.79;72.29
40850;BME280;26571;41.610;25.380;2023-11-21T01:53:39;98219.22;;;8.84;71.90
40850;BME280;26571;41.610;25.380;2023-11-21T01:56:07;98228.41;;;8.72;71.55
40850;BME280;26571;41.610;25.380;2023-11-21T01:58:34;98233.97;;;8.77;71.88
40850;BME280;26571;41.610;25.380;2023-11-21T02:00:59;98211.66;;;8.73;72.34
40850;BME280;26571;41.610;25.380;2023-11-21T02:03:25;98222.81;;;8.67;72.42
40850;BME280;26571;41.610;25.380;2023-11-21T02:05:52;98219.31;;;8.58;71.91
40850;BME280;26571;41.610;25.380;2023-11-21T02:08:19;98205.34;;;8.49;71.65
40850;BME280;26571;41.610;25.380;2023-11-21T02:10:44;98173.59;;;8.26;71.94
40850;BME280;26571;41.610;25.380;2023-11-21T02:13:10;98165.41;;;8.21;72.28
40850;BME280;26571;41.610;25.380;2023-11-21T02:15:36;98207.66;;;8.52;71.75
40850;BME280;26571;41.610;25.380;2023-11-21T02:18:03;98211.94;;;8.53;71.30
40850;BME280;26571;41.610;25.380;2023-11-21T02:20:31;98207.97;;;8.41;71.71
40850;BME280;26571;41.610;25.380;2023-11-21T02:23:00;98205.47;;;8.40;72.27
40850;BME280;26571;41.610;25.380;2023-11-21T02:25:30;98220.19;;;8.33;73.06
40850;BME280;26571;41.610;25.380;2023-11-21T02:27:58;98214.06;;;8.24;73.22
40850;BME280;26571;41.610;25.380;2023-11-21T02:30:24;98219.41;;;8.06;74.90
40850;BME280;26571;41.610;25.380;2023-11-21T02:32:58;98212.75;;;7.94;74.07
40850;BME280;26571;41.610;25.380;2023-11-21T02:35:24;98187.69;;;7.65;74.12
40850;BME280;26571;41.610;25.380;2023-11-21T02:37:53;98216.63;;;7.82;75.13
40850;BME280;26571;41.610;25.380;2023-11-21T02:40:18;98223.81;;;7.80;75.50
40850;BME280;26571;41.610;25.380;2023-11-21T02:42:48;98215.34;;;7.86;75.65
40850;BME280;26571;41.610;25.380;2023-11-21T02:45:17;98204.91;;;7.94;76.58
40850;BME280;26571;41.610;25.380;2023-11-21T02:47:43;98180.59;;;7.84;76.33
40850;BME280;26571;41.610;25.380;2023-11-21T02:50:09;98205.66;;;8.12;75.50
40850;BME280;26571;41.610;25.380;2023-11-21T02:52:35;98187.72;;;7.99;74.78
40850;BME280;26571;41.610;25.380;2023-11-21T02:55:04;98202.00;;;8.05;74.43
40850;BME280;26571;41.610;25.380;2023-11-21T02:57:30;98200.69;;;8.01;73.68
40850;BME280;26571;41.610;25.380;2023-11-21T02:59:55;98206.75;;;8.01;73.78
40850;BME280;26571;41.610;25.380;2023-11-21T03:02:21;98176.03;;;7.86;73.91
40850;BME280;26571;41.610;25.380;2023-11-21T03:04:47;98201.75;;;8.16;74.56
40850;BME280;26571;41.610;25.380;2023-11-21T03:07:16;98194.41;;;7.94;74.10
40850;BME280;26571;41.610;25.380;2023-11-21T03:09:45;98210.84;;;8.04;73.27
40850;BME280;26571;41.610;25.380;2023-11-21T03:12:10;98214.75;;;8.00;72.99
40850;BME280;26571;41.610;25.380;2023-11-21T03:14:38;98217.53;;;7.98;72.58
40850;BME280;26571;41.610;25.380;2023-11-21T03:17:03;98219.63;;;7.95;73.30
40850;BME280;26571;41.610;25.380;2023-11-21T03:19:30;98223.25;;;7.94;73.45
40850;BME280;26571;41.610;25.380;2023-11-21T03:21:55;98215.03;;;7.89;73.38
40850;BME280;26571;41.610;25.380;2023-11-21T03:24:21;98214.97;;;7.81;73.31
40850;BME280;26571;41.610;25.380;2023-11-21T03:26:48;98213.75;;;7.93;72.57
40850;BME280;26571;41.610;25.380;2023-11-21T03:29:14;98209.72;;;7.81;73.14
40850;BME280;26571;41.610;25.380;2023-11-21T03:31:40;98227.13;;;7.82;71.61
40850;BME280;26571;41.610;25.380;2023-11-21T03:34:06;98215.09;;;7.71;71.25
40850;BME280;26571;41.610;25.380;2023-11-21T03:36:31;98222.41;;;7.67;72.62
40850;BME280;26571;41.610;25.380;2023-11-21T03:38:57;98218.66;;;7.70;72.49
40850;BME280;26571;41.610;25.380;2023-11-21T03:41:22;98163.16;;;7.22;73.10
40850;BME280;26571;41.610;25.380;2023-11-21T03:43:48;98219.81;;;7.67;72.05
40850;BME280;26571;41.610;25.380;2023-11-21T03:46:13;98224.06;;;7.68;71.74
40850;BME280;26571;41.610;25.380;2023-11-21T03:48:39;98228.66;;;7.66;71.25
40850;BME280;26571;41.610;25.380;2023-11-21T03:51:05;98214.47;;;7.51;72.14
40850;BME280;26571;41.610;25.380;2023-11-21T03:53:30;98222.34;;;7.59;72.57
40850;BME280;26571;41.610;25.380;2023-11-21T03:55:56;98215.19;;;7.61;72.53
40850;BME280;26571;41.610;25.380;2023-11-21T03:58:21;98185.38;;;7.36;72.94
40850;BME280;26571;41.610;25.380;2023-11-21T04:00:47;98216.00;;;7.62;72.93
40850;BME280;26571;41.610;25.380;2023-11-21T04:03:14;98224.00;;;7.60;72.25
40850;BME280;26571;41.610;25.380;2023-11-21T04:05:39;98224.94;;;7.51;73.08
40850;BME280;26571;41.610;25.380;2023-11-21T04:08:06;98209.06;;;7.35;73.59
40850;BME280;26571;41.610;25.380;2023-11-21T04:10:31;98219.97;;;7.48;73.53
40850;BME280;26571;41.610;25.380;2023-11-21T04:12:57;98218.03;;;7.50;74.42
40850;BME280;26571;41.610;25.380;2023-11-21T04:15:22;98221.00;;;7.55;73.74
40850;BME280;26571;41.610;25.380;2023-11-21T04:17:48;98197.13;;;7.58;73.17
40850;BME280;26571;41.610;25.380;2023-11-21T04:20:13;98215.47;;;7.58;73.86
40850;BME280;26571;41.610;25.380;2023-11-21T04:22:42;98163.72;;;7.34;73.37
40850;BME280;26571;41.610;25.380;2023-11-21T04:25:14;98215.69;;;7.65;73.28
40850;BME280;26571;41.610;25.380;2023-11-21T04:27:40;98215.22;;;7.69;72.20
40850;BME280;26571;41.610;25.380;2023-11-21T04:30:09;98221.25;;;7.62;72.63
40850;BME280;26571;41.610;25.380;2023-11-21T04:32:35;98187.31;;;7.34;71.80
40850;BME280;26571;41.610;25.380;2023-11-21T04:35:01;98233.81;;;7.40;73.05
40850;BME280;26571;41.610;25.380;2023-11-21T04:37:26;98210.28;;;7.22;73.71
40850;BME280;26571;41.610;25.380;2023-11-21T04:39:52;98228.59;;;7.40;74.24
40850;BME280;26571;41.610;25.380;2023-11-21T04:42:17;98243.84;;;7.45;74.19
40850;BME280;26571;41.610;25.380;2023-11-21T04:44:43;98246.25;;;7.56;74.44
40850;BME280;26571;41.610;25.380;2023-11-21T04:47:09;98254.09;;;7.56;74.52
40850;BME280;26571;41.610;25.380;2023-11-21T04:49:34;98250.81;;;7.54;74.68
40850;BME280;26571;41.610;25.380;2023-11-21T04:52:00;98234.19;;;7.45;74.13
40850;BME280;26571;41.610;25.380;2023-11-21T04:54:26;98232.09;;;7.49;72.95
40850;BME280;26571;41.610;25.380;2023-11-21T04:56:52;98242.78;;;7.56;73.22
40850;BME280;26571;41.610;25.380;2023-11-21T04:59:17;98243.41;;;7.49;73.74
40850;BME280;26571;41.610;25.380;2023-11-21T05:01:43;98231.06;;;7.42;73.77
40850;BME280;26571;41.610;25.380;2023-11-21T05:04:09;98235.69;;;7.48;74.24
40850;BME280;26571;41.610;25.380;2023-11-21T05:06:34;98238.06;;;7.59;73.74
40850;BME280;26571;41.610;25.380;2023-11-21T05:09:00;98248.56;;;7.59;74.64
40850;BME280;26571;41.610;25.380;2023-11-21T05:11:26;98249.16;;;7.53;74.88
40850;BME280;26571;41.610;25.380;2023-11-21T05:13:52;98249.16;;;7.53;74.70
40850;BME280;26571;41.610;25.380;2023-11-21T05:16:19;98250.28;;;7.50;75.21
40850;BME280;26571;41.610;25.380;2023-11-21T05:18:44;98253.88;;;7.49;75.10
40850;BME280;26571;41.610;25.380;2023-11-21T05:21:10;98254.25;;;7.55;74.19
40850;BME280;26571;41.610;25.380;2023-11-21T05:23:36;98256.06;;;7.36;74.39
40850;BME280;26571;41.610;25.380;2023-11-21T05:26:03;98253.13;;;7.39;73.31
40850;BME280;26571;41.610;25.380;2023-11-21T05:28:28;98276.38;;;7.60;72.65
40850;BME280;26571;41.610;25.380;2023-11-21T05:30:54;98277.00;;;7.54;72.53
40850;BME280;26571;41.610;25.380;2023-11-21T05:33:20;98270.56;;;7.48;73.24
40850;BME280;26571;41.610;25.380;2023-11-21T05:35:45;98277.69;;;7.56;72.58
40850;BME280;26571;41.610;25.380;2023-11-21T05:38:13;98277.66;;;7.74;72.17
40850;BME280;26571;41.610;25.380;2023-11-21T05:40:38;98265.72;;;7.80;72.13
40850;BME280;26571;41.610;25.380;2023-11-21T05:43:04;98262.56;;;7.94;71.38
40850;BME280;26571;41.610;25.380;2023-11-21T05:45:30;98266.88;;;8.03;70.55
40850;BME280;26571;41.610;25.380;2023-11-21T05:47:55;98265.16;;;8.12;70.52
40850;BME280;26571;41.610;25.380;2023-11-21T05:50:21;98263.59;;;8.01;69.77
40850;BME280;26571;41.610;25.380;2023-11-21T05:52:47;98253.84;;;8.37;70.41
40850;BME280;26571;41.610;25.380;2023-11-21T05:55:13;98255.19;;;9.00;68.24
40850;BME280;26571;41.610;25.380;2023-11-21T05:57:40;98275.00;;;9.77;66.46
40850;BME280;26571;41.610;25.380;2023-11-21T06:00:11;98261.72;;;10.51;62.74
40850;BME280;26571;41.610;25.380;2023-11-21T06:02:39;98266.94;;;11.29;60.88
40850;BME280;26571;41.610;25.380;2023-11-21T06:05:08;98253.69;;;11.83;57.23
40850;BME280;26571;41.610;25.380;2023-11-21T06:07:34;98244.75;;;12.52;56.15
40850;BME280;26571;41.610;25.380;2023-11-21T06:10:02;98264.03;;;13.33;53.48
40850;BME280;26571;41.610;25.380;2023-11-21T06:12:28;98237.19;;;13.57;51.11
40850;BME280;26571;41.610;25.380;2023-11-21T06:14:54;98276.63;;;14.02;49.95
40850;BME280;26571;41.610;25.380;2023-11-21T06:17:20;98274.25;;;14.41;49.59
40850;BME280;26571;41.610;25.380;2023-11-21T06:19:46;98273.16;;;14.98;47.70
40850;BME280;26571;41.610;25.380;2023-11-21T06:22:11;98247.94;;;15.29;46.41
40850;BME280;26571;41.610;25.380;2023-11-21T06:24:37;98271.31;;;15.93;45.27
40850;BME280;26571;41.610;25.380;2023-11-21T06:27:06;98271.47;;;16.38;44.15
40850;BME280;26571;41.610;25.380;2023-11-21T06:29:31;98264.88;;;16.74;43.31
40850;BME280;26571;41.610;25.380;2023-11-21T06:31:57;98244.91;;;17.03;42.83
40850;BME280;26571;41.610;25.380;2023-11-21T06:34:23;98268.34;;;17.57;41.84
40850;BME280;26571;41.610;25.380;2023-11-21T06:36:49;98267.31;;;17.90;41.11
40850;BME280;26571;41.610;25.380;2023-11-21T06:39:14;98271.31;;;18.24;40.12
40850;BME280;26571;41.610;25.380;2023-11-21T06:41:42;98270.09;;;18.64;39.77
40850;BME280;26571;41.610;25.380;2023-11-21T06:44:08;98263.00;;;18.94;38.94
40850;BME280;26571;41.610;25.380;2023-11-21T06:46:34;98255.28;;;19.04;38.65
40850;BME280;26571;41.610;25.380;2023-11-21T06:48:59;98248.03;;;19.23;38.83
40850;BME280;26571;41.610;25.380;2023-11-21T06:51:25;98251.50;;;19.54;38.09
40850;BME280;26571;41.610;25.380;2023-11-21T06:53:50;98235.03;;;19.45;37.93
40850;BME280;26571;41.610;25.380;2023-11-21T06:56:19;98245.34;;;19.53;38.56
40850;BME280;26571;41.610;25.380;2023-11-21T06:58:45;98208.50;;;19.62;38.20
40850;BME280;26571;41.610;25.380;2023-11-21T07:01:12;98237.22;;;20.13;37.23
40850;BME280;26571;41.610;25.380;2023-11-21T07:03:38;98228.13;;;20.38;37.04
40850;BME280;26571;41.610;25.380;2023-11-21T07:06:05;98224.44;;;20.51;36.91
40850;BME280;26571;41.610;25.380;2023-11-21T07:08:31;98228.63;;;20.35;36.52
40850;BME280;26571;41.610;25.380;2023-11-21T07:10:56;98197.38;;;19.77;37.17
40850;BME280;26571;41.610;25.380;2023-11-21T07:13:22;98230.75;;;19.56;37.57
40850;BME280;26571;41.610;25.380;2023-11-21T07:15:47;98232.16;;;19.28;38.31
40850;BME280;26571;41.610;25.380;2023-11-21T07:18:13;98231.22;;;19.23;38.52
40850;BME280;26571;41.610;25.380;2023-11-21T07:20:38;98232.53;;;19.32;38.24
40850;BME280;26571;41.610;25.380;2023-11-21T07:23:04;98230.22;;;19.77;38.39
40850;BME280;26571;41.610;25.380;2023-11-21T07:25:31;98227.81;;;19.87;37.52
40850;BME280;26571;41.610;25.380;2023-11-21T07:27:57;98193.31;;;19.74;38.32
40850;BME280;26571;41.610;25.380;2023-11-21T07:30:22;98229.94;;;19.55;37.92
40850;BME280;26571;41.610;25.380;2023-11-21T07:32:48;98208.75;;;19.30;38.57
40850;BME280;26571;41.610;25.380;2023-11-21T07:35:14;98217.44;;;19.26;38.73
40850;BME280;26571;41.610;25.380;2023-11-21T07:37:40;98218.41;;;18.83;41.65
40850;BME280;26571;41.610;25.380;2023-11-21T07:40:06;98217.38;;;18.84;42.09
40850;BME280;26571;41.610;25.380;2023-11-21T07:42:34;98214.88;;;18.71;41.61
40850;BME280;26571;41.610;25.380;2023-11-21T07:44:59;98210.56;;;18.51;41.05
40850;BME280;26571;41.610;25.380;2023-11-21T07:47:25;98209.16;;;17.87;43.72
40850;BME280;26571;41.610;25.380;2023-11-21T07:49:53;98202.75;;;17.38;44.89
40850;BME280;26571;41.610;25.380;2023-11-21T07:52:21;98207.16;;;17.26;45.29
40850;BME280;26571;41.610;25.380;2023-11-21T07:54:46;98206.28;;;17.32;44.95
40850;BME280;26571;41.610;25.380;2023-11-21T07:57:12;98209.34;;;16.97;44.90
40850;BME280;26571;41.610;25.380;2023-11-21T07:59:42;98192.75;;;16.57;45.81
40850;BME280;26571;41.610;25.380;2023-11-21T08:02:07;98206.31;;;16.29;46.53
40850;BME280;26571;41.610;25.380;2023-11-21T08:04:33;98203.31;;;15.52;48.31
40850;BME280;26571;41.610;25.380;2023-11-21T08:06:59;98160.16;;;14.84;51.79
40850;BME280;26571;41.610;25.380;2023-11-21T08:09:24;98192.41;;;15.01;52.70
40850;BME280;26571;41.610;25.380;2023-11-21T08:11:51;98200.63;;;15.39;52.29
40850;BME280;26571;41.610;25.380;2023-11-21T08:14:18;98200.25;;;15.75;51.02
40850;BME280;26571;41.610;25.380;2023-11-21T08:16:44;98196.59;;;15.96;50.93
40850;BME280;26571;41.610;25.380;2023-11-21T08:19:10;98174.41;;;16.42;49.53
40850;BME280;26571;41.610;25.380;2023-11-21T08:21:36;98196.13;;;16.84;47.94
40850;BME280;26571;41.610;25.380;2023-11-21T08:24:06;98187.84;;;16.99;47.68
40850;BME280;26571;41.610;25.380;2023-11-21T08:26:35;98189.44;;;17.38;46.82
40850;BME280;26571;41.610;25.380;2023-11-21T08:29:01;98182.03;;;17.47;47.23
40850;BME280;26571;41.610;25.380;2023-11-21T08:31:26;98183.91;;;17.40;46.96
40850;BME280;26571;41.610;25.380;2023-11-21T08:33:52;98171.41;;;16.70;48.58
40850;BME280;26571;41.610;25.380;2023-11-21T08:36:21;98178.97;;;16.22;49.44
40850;BME280;26571;41.610;25.380;2023-11-21T08:38:48;98164.31;;;15.86;50.15
40850;BME280;26571;41.610;25.380;2023-11-21T08:41:14;98183.50;;;15.48;51.78
40850;BME280;26571;41.610;25.380;2023-11-21T08:43:40;98182.00;;;15.06;54.46
40850;BME280;26571;41.610;25.380;2023-11-21T08:46:08;98153.00;;;14.78;52.95
40850;BME280;26571;41.610;25.380;2023-11-21T08:48:36;98178.13;;;14.95;52.79
40850;BME280;26571;41.610;25.380;2023-11-21T08:51:02;98172.34;;;14.72;54.70
40850;BME280;26571;41.610;25.380;2023-11-21T08:53:27;98137.47;;;14.20;54.44
40850;BME280;26571;41.610;25.380;2023-11-21T08:55:53;98172.69;;;14.14;55.72
40850;BME280;26571;41.610;25.380;2023-11-21T08:58:19;98170.16;;;14.41;56.72
40850;BME280;26571;41.610;25.380;2023-11-21T09:00:45;98148.69;;;14.64;57.12
40850;BME280;26571;41.610;25.380;2023-11-21T09:03:12;98155.94;;;15.30;55.61
40850;BME280;26571;41.610;25.380;2023-11-21T09:05:38;98150.00;;;15.61;55.38
40850;BME280;26571;41.610;25.380;2023-11-21T09:08:04;98153.66;;;15.99;53.19
40850;BME280;26571;41.610;25.380;2023-11-21T09:10:30;98135.25;;;16.18;52.45
40850;BME280;26571;41.610;25.380;2023-11-21T09:12:55;98117.25;;;16.20;53.21
40850;BME280;26571;41.610;25.380;2023-11-21T09:15:21;98025.16;;;15.36;52.70
40850;BME280;26571;41.610;25.380;2023-11-21T09:17:47;98091.66;;;15.74;52.70
40850;BME280;26571;41.610;25.380;2023-11-21T09:20:13;98098.59;;;15.62;53.84
40850;BME280;26571;41.610;25.380;2023-11-21T09:22:40;98106.06;;;16.05;53.64
40850;BME280;26571;41.610;25.380;2023-11-21T09:25:06;98077.69;;;15.98;53.26
40850;BME280;26571;41.610;25.380;2023-11-21T09:27:36;98103.84;;;15.95;53.92
40850;BME280;26571;41.610;25.380;2023-11-21T09:30:02;98090.41;;;15.83;54.92
40850;BME280;26571;41.610;25.380;2023-11-21T09:32:30;98072.09;;;15.42;55.96
40850;BME280;26571;41.610;25.380;2023-11-21T09:34:56;98105.72;;;15.74;55.36
40850;BME280;26571;41.610;25.380;2023-11-21T09:37:23;97987.91;;;14.78;56.77
40850;BME280;26571;41.610;25.380;2023-11-21T09:39:50;98098.19;;;15.65;56.60
40850;BME280;26571;41.610;25.380;2023-11-21T09:43:03;98093.28;;;15.75;56.92
40850;BME280;26571;41.610;25.380;2023-11-21T09:45:29;98082.47;;;15.70;56.13
40850;BME280;26571;41.610;25.380;2023-11-21T09:48:02;98035.97;;;15.47;57.88
40850;BME280;26571;41.610;25.380;2023-11-21T09:50:29;98063.50;;;15.73;55.29
40850;BME280;26571;41.610;25.380;2023-11-21T09:55:34;98054.91;;;15.77;57.02
40850;BME280;26571;41.610;25.380;2023-11-21T09:58:04;98063.38;;;16.06;57.41
40850;BME280;26571;41.610;25.380;2023-11-21T10:00:33;98044.69;;;16.26;56.83
40850;BME280;26571;41.610;25.380;2023-11-21T10:02:58;98057.75;;;16.66;56.19
40850;BME280;26571;41.610;25.380;2023-11-21T10:05:25;98049.88;;;16.91;56.46
40850;BME280;26571;41.610;25.380;2023-11-21T10:07:50;98037.53;;;16.96;58.81
40850;BME280;26571;41.610;25.380;2023-11-21T10:10:19;98033.94;;;16.84;60.03
40850;BME280;26571;41.610;25.380;2023-11-21T10:12:49;98026.78;;;16.53;61.59
40850;BME280;26571;41.610;25.380;2023-11-21T10:15:16;98023.59;;;16.38;62.83
40850;BME280;26571;41.610;25.380;2023-11-21T10:17:44;98033.59;;;16.42;63.09
40850;BME280;26571;41.610;25.380;2023-11-21T10:20:11;98025.91;;;16.27;64.20
40850;BME280;26571;41.610;25.380;2023-11-21T10:22:42;98021.75;;;15.93;65.97
40850;BME280;26571;41.610;25.380;2023-11-21T10:25:11;98013.66;;;15.75;66.29
40850;BME280;26571;41.610;25.380;2023-11-21T10:27:40;97989.41;;;15.58;66.80
40850;BME280;26571;41.610;25.380;2023-11-21T10:30:10;98013.69;;;15.62;67.54
40850;BME280;26571;41.610;25.380;2023-11-21T10:32:40;98017.16;;;15.56;68.00
40850;BME280;26571;41.610;25.380;2023-11-21T10:35:09;98012.09;;;15.47;68.15
40850;BME280;26571;41.610;25.380;2023-11-21T10:37:38;98004.91;;;15.55;67.96
40850;BME280;26571;41.610;25.380;2023-11-21T10:40:07;97988.00;;;15.49;67.61
40850;BME280;26571;41.610;25.380;2023-11-21T10:42:39;97963.13;;;15.43;67.28
40850;BME280;26571;41.610;25.380;2023-11-21T10:45:06;97998.94;;;15.79;66.93
40850;BME280;26571;41.610;25.380;2023-11-21T10:47:39;98005.44;;;15.96;67.54
40850;BME280;26571;41.610;25.380;2023-11-21T10:50:05;97999.63;;;16.06;67.70
40850;BME280;26571;41.610;25.380;2023-11-21T10:52:31;98006.91;;;16.24;67.58
40850;BME280;26571;41.610;25.380;2023-11-21T10:54:57;97996.63;;;16.34;66.99
40850;BME280;26571;41.610;25.380;2023-11-21T10:57:24;97995.34;;;16.43;67.79
40850;BME280;26571;41.610;25.380;2023-11-21T10:59:53;97997.06;;;16.63;66.76
40850;BME280;26571;41.610;25.380;2023-11-21T11:02:26;97985.81;;;16.61;66.26
40850;BME280;26571;41.610;25.380;2023-11-21T11:04:53;97973.06;;;16.44;66.95
40850;BME280;26571;41.610;25.380;2023-11-21T11:07:22;97989.47;;;16.41;67.82
40850;BME280;26571;41.610;25.380;2023-11-21T11:09:52;97985.94;;;16.47;68.34
40850;BME280;26571;41.610;25.380;2023-11-21T11:12:18;97983.00;;;16.55;67.89
40850;BME280;26571;41.610;25.380;2023-11-21T11:14:44;97989.19;;;16.49;68.09
40850;BME280;26571;41.610;25.380;2023-11-21T11:17:10;97950.50;;;16.28;68.66
40850;BME280;26571;41.610;25.380;2023-11-21T11:19:36;97969.94;;;16.54;68.61
40850;BME280;26571;41.610;25.380;2023-11-21T11:30:53;97955.97;;;16.90;69.11
40850;BME280;26571;41.610;25.380;2023-11-21T11:33:45;97946.25;;;17.02;69.03
40850;BME280;26571;41.610;25.380;2023-11-21T11:36:31;97944.13;;;17.11;68.54
40850;BME280;26571;41.610;25.380;2023-11-21T11:38:59;97952.28;;;16.91;69.35
40850;BME280;26571;41.610;25.380;2023-11-21T11:41:29;97939.19;;;16.71;70.92
40850;BME280;26571;41.610;25.380;2023-11-21T11:43:57;97945.69;;;16.69;71.39
40850;BME280;26571;41.610;25.380;2023-11-21T11:46:44;97940.97;;;16.77;71.92
40850;BME280;26571;41.610;25.380;2023-11-21T11:49:28;97932.81;;;16.66;71.65
40850;BME280;26571;41.610;25.380;2023-11-21T11:52:31;97935.03;;;16.75;72.20
40850;BME280;26571;41.610;25.380;2023-11-21T11:54:57;97929.16;;;16.67;72.65
40850;BME280;26571;41.610;25.380;2023-11-21T11:57:24;97911.38;;;16.42;71.84
40850;BME280;26571;41.610;25.380;2023-11-21T12:02:52;97914.34;;;16.52;72.95
40850;BME280;26571;41.610;25.380;2023-11-21T12:05:21;97887.13;;;16.32;72.51
40850;BME280;26571;41.610;25.380;2023-11-21T12:07:55;97918.47;;;16.48;72.57
40850;BME280;26571;41.610;25.380;2023-11-21T12:10:30;97879.53;;;16.36;71.72
40850;BME280;26571;41.610;25.380;2023-11-21T12:13:00;97897.13;;;16.62;71.70
40850;BME280;26571;41.610;25.380;2023-11-21T12:15:26;97908.25;;;16.45;72.37
40850;BME280;26571;41.610;25.380;2023-11-21T12:17:55;97905.50;;;16.34;73.86
40850;BME280;26571;41.610;25.380;2023-11-21T12:20:22;97891.41;;;16.33;74.03
40850;BME280;26571;41.610;25.380;2023-11-21T12:22:52;97889.78;;;16.32;74.52
40850;BME280;26571;41.610;25.380;2023-11-21T12:25:23;97883.03;;;16.36;74.13
40850;BME280;26571;41.610;25.380;2023-11-21T12:27:53;97881.75;;;16.39;74.07
40850;BME280;26571;41.610;25.380;2023-11-21T12:30:23;97863.44;;;16.31;73.88
40850;BME280;26571;41.610;25.380;2023-11-21T12:32:50;97868.97;;;16.29;74.41
40850;BME280;26571;41.610;25.380;2023-11-21T12:35:17;97873.25;;;16.30;74.57
40850;BME280;26571;41.610;25.380;2023-11-21T12:37:45;97866.78;;;16.19;74.82
40850;BME280;26571;41.610;25.380;2023-11-21T12:40:12;97872.81;;;16.33;74.13
40850;BME280;26571;41.610;25.380;2023-11-21T12:42:42;97870.38;;;16.32;74.40
40850;BME280;26571;41.610;25.380;2023-11-21T12:47:37;97839.09;;;16.09;75.33
40850;BME280;26571;41.610;25.380;2023-11-21T12:50:03;97845.09;;;15.97;75.60
40850;BME280;26571;41.610;25.380;2023-11-21T12:52:31;97852.13;;;16.17;75.39
40850;BME280;26571;41.610;25.380;2023-11-21T12:54:56;97867.56;;;16.26;75.27
40850;BME280;26571;41.610;25.380;2023-11-21T12:57:25;97861.88;;;16.23;75.34
40850;BME280;26571;41.610;25.380;2023-11-21T12:59:57;97863.75;;;16.16;75.20
40850;BME280;26571;41.610;25.380;2023-11-21T13:02:26;97853.59;;;16.06;75.29
40850;BME280;26571;41.610;25.380;2023-11-21T13:04:52;97846.94;;;15.97;75.61
40850;BME280;26571;41.610;25.380;2023-11-21T13:07:18;97842.47;;;15.97;75.23
40850;BME280;26571;41.610;25.380;2023-11-21T13:09:45;97839.00;;;15.97;75.19
40850;BME280;26571;41.610;25.380;2023-11-21T13:12:11;97836.53;;;15.95;75.20